Country
Station

 

Weather  for  Goteborg/Save  -  Sweden    Sweden

  
-2 °C (28 °F)
    
 
 

Current METAR for Goteborg/Save is :

ESGP 021020Z AUTO 00000KT 9999 NCD M02/M04 Q1012

 

This is a report for Goteborg/Save - Sweden.
 
The report was made 384 hours and 52 minutes ago, at 10:20 UTC .
The wind was calm.
 
The temperature was -2 °C (28 °F), with a dew-point at -4 °C (25 °F).
The atmospheric pressure was 1012 hPa (29.88 inHg).
The relative humidity was 86.1%.
 
The overall visibility was greater than 10 kilometers (6.2 miles).
 

 
 
 
 

Country :   A   B   C   D   E   F   G   H   I   J   K   L   M   N   O   P   Q   R   S   T   U   V   W   Y   Z

 

Site Info  |  Disclaimer  |  Credits  |  Privacy
Contact us  |  Add to favorites
© 2013-2019 METARs - All rights reserved